createdAt,value
2023-05-07T00:04:06.889Z,82.60
2023-05-07T00:09:08.722Z,82.32
2023-05-07T00:14:10.566Z,82.39
2023-05-07T00:19:12.293Z,83.22
2023-05-07T00:24:13.946Z,83.23
2023-05-07T00:29:15.607Z,83.39
2023-05-07T00:34:17.402Z,83.46
2023-05-07T00:39:19.034Z,83.43
2023-05-07T00:44:20.795Z,83.28
2023-05-07T00:49:22.753Z,84.26
2023-05-07T00:54:24.750Z,84.44
2023-05-07T00:59:26.706Z,84.34
2023-05-07T01:04:28.692Z,84.92
2023-05-07T01:09:30.921Z,85.08
2023-05-07T01:14:34.076Z,85.16
2023-05-07T01:19:36.055Z,85.38
2023-05-07T01:24:39.048Z,85.13
2023-05-07T01:29:42.330Z,85.15
2023-05-07T01:34:47.383Z,85.39
2023-05-07T01:39:49.727Z,85.18
2023-05-07T01:44:52.424Z,85.42
2023-05-07T01:49:54.111Z,85.02
2023-05-07T01:54:55.992Z,85.27
2023-05-07T01:59:58.092Z,85.22
2023-05-07T02:05:01.182Z,85.60
2023-05-07T02:10:03.981Z,85.35
2023-05-07T02:15:06.593Z,85.01
2023-05-07T02:20:14.157Z,85.36
2023-05-07T02:25:17.061Z,85.62
2023-05-07T02:30:19.166Z,85.56
2023-05-07T02:35:21.238Z,85.41
2023-05-07T02:40:23.030Z,84.97
2023-05-07T02:45:24.836Z,85.46
2023-05-07T02:50:28.642Z,85.66
2023-05-07T02:55:32.561Z,85.32
2023-05-07T03:00:34.574Z,85.00
2023-05-07T03:05:48.457Z,85.44
2023-05-07T03:10:50.195Z,85.78
2023-05-07T03:15:52.033Z,85.91
2023-05-07T03:20:54.560Z,86.42
2023-05-07T03:25:56.405Z,86.79
2023-05-07T03:30:58.540Z,86.59
2023-05-07T03:36:00.381Z,86.54
2023-05-07T03:41:03.429Z,86.46
2023-05-07T03:46:05.935Z,86.61
2023-05-07T03:51:07.834Z,86.26
2023-05-07T03:56:09.645Z,85.91
2023-05-07T04:01:14.669Z,86.56
2023-05-07T04:06:19.699Z,86.49
2023-05-07T04:11:23.879Z,86.33
2023-05-07T04:16:25.656Z,86.23
2023-05-07T04:21:27.904Z,85.19
2023-05-07T04:26:30.466Z,85.25
2023-05-07T04:31:32.855Z,85.59
2023-05-07T04:36:35.096Z,85.73
2023-05-07T04:41:41.195Z,85.70
2023-05-07T04:46:43.857Z,85.81
2023-05-07T04:51:46.125Z,86.45
2023-05-07T04:56:55.679Z,87.01
2023-05-07T05:01:58.729Z,87.88
2023-05-07T05:07:01.942Z,88.05
2023-05-07T05:12:04.537Z,88.42
2023-05-07T05:17:06.575Z,89.39
2023-05-07T05:22:09.047Z,89.99
2023-05-07T05:27:11.093Z,90.30
2023-05-07T05:32:13.064Z,89.61
2023-05-07T05:37:15.483Z,88.94
2023-05-07T05:42:17.991Z,90.44
2023-05-07T05:47:19.800Z,91.99
2023-05-07T05:52:24.645Z,91.83
2023-05-07T05:57:28.646Z,92.05
2023-05-07T06:02:31.265Z,91.50
2023-05-07T06:07:33.769Z,91.29
2023-05-07T06:12:35.834Z,91.17
2023-05-07T06:17:38.053Z,90.02
2023-05-07T06:22:40.307Z,89.41
2023-05-07T06:27:43.358Z,89.07
2023-05-07T06:32:45.538Z,88.24
2023-05-07T06:37:48.878Z,88.40
2023-05-07T06:42:58.276Z,87.91
2023-05-07T06:48:22.812Z,86.94
2023-05-07T06:53:36.494Z,85.70
2023-05-07T06:58:39.375Z,86.33
2023-05-07T07:03:42.189Z,86.46
2023-05-07T07:08:44.396Z,85.50
2023-05-07T07:13:49.226Z,84.61
2023-05-07T07:18:51.882Z,83.13
2023-05-07T07:23:53.928Z,84.21
2023-05-07T07:28:56.914Z,83.96
2023-05-07T07:34:00.193Z,82.80
2023-05-07T07:39:03.079Z,82.60
2023-05-07T07:44:07.926Z,81.68
2023-05-07T07:49:12.380Z,81.52
2023-05-07T07:54:14.285Z,79.29
2023-05-07T07:59:19.709Z,79.54
2023-05-07T08:04:22.831Z,79.87
2023-05-07T08:09:24.853Z,76.66
2023-05-07T08:14:29.360Z,77.23
2023-05-07T08:19:32.353Z,76.53
2023-05-07T08:24:34.460Z,76.51
2023-05-07T08:29:36.610Z,76.75
2023-05-07T08:34:38.580Z,75.36
2023-05-07T08:39:42.182Z,75.10
2023-05-07T08:44:55.678Z,75.44
2023-05-07T08:49:59.272Z,74.66
2023-05-07T08:55:03.202Z,73.88
2023-05-07T09:00:08.356Z,73.44
2023-05-07T09:05:12.757Z,72.98
2023-05-07T09:10:15.241Z,72.26
2023-05-07T09:15:19.651Z,73.21
2023-05-07T09:20:21.792Z,69.65
2023-05-07T09:25:32.333Z,71.69
2023-05-07T09:30:38.595Z,73.12
2023-05-07T09:35:43.205Z,68.68
2023-05-07T09:41:12.603Z,69.64
2023-05-07T09:46:33.297Z,69.43
2023-05-07T09:51:49.360Z,66.48
2023-05-07T09:56:53.021Z,67.74
2023-05-07T10:01:59.846Z,66.84
2023-05-07T10:07:04.715Z,66.42
2023-05-07T10:12:08.122Z,64.30
2023-05-07T10:17:13.271Z,61.75
2023-05-07T10:22:19.227Z,62.31
2023-05-07T10:27:23.624Z,62.35
2023-05-07T10:32:32.533Z,62.85
2023-05-07T10:37:35.578Z,61.38
2023-05-07T10:42:37.875Z,59.10
2023-05-07T10:53:29.474Z,59.28
2023-05-07T10:58:46.477Z,59.84
2023-05-07T11:04:16.387Z,59.83
2023-05-07T11:09:52.300Z,59.19
2023-05-07T11:14:58.577Z,57.57
2023-05-07T11:20:09.333Z,57.52
2023-05-07T11:25:20.318Z,58.04
2023-05-07T11:30:27.412Z,56.66
2023-05-07T11:35:30.410Z,57.97
2023-05-07T11:40:33.864Z,57.60
2023-05-07T11:45:36.175Z,57.12
2023-05-07T11:50:51.880Z,58.57
2023-05-07T11:55:56.060Z,57.48
2023-05-07T12:00:57.864Z,56.42
2023-05-07T12:06:00.908Z,55.97
2023-05-07T12:11:02.641Z,56.16
2023-05-07T12:16:06.504Z,54.61
2023-05-07T12:21:08.803Z,54.87
2023-05-07T12:26:11.852Z,54.19
2023-05-07T12:31:15.751Z,54.17
2023-05-07T12:36:17.544Z,54.98
2023-05-07T12:41:19.340Z,55.27
2023-05-07T12:46:21.349Z,55.21
2023-05-07T12:51:23.240Z,55.08
2023-05-07T12:56:24.961Z,55.10
2023-05-07T13:01:31.504Z,53.83
2023-05-07T13:06:33.492Z,52.86
2023-05-07T13:11:35.419Z,53.47
2023-05-07T13:16:37.126Z,53.66
2023-05-07T13:21:38.925Z,54.08
2023-05-07T13:26:40.743Z,53.30
2023-05-07T13:31:44.976Z,53.64
2023-05-07T13:36:46.856Z,53.94
2023-05-07T13:41:48.506Z,55.05
2023-05-07T13:46:50.325Z,54.49
2023-05-07T13:51:51.986Z,55.22
2023-05-07T13:56:53.733Z,55.24
2023-05-07T14:01:55.946Z,53.65
2023-05-07T14:06:57.812Z,54.05
2023-05-07T14:12:00.004Z,54.61
2023-05-07T14:17:01.916Z,54.38
2023-05-07T14:22:03.756Z,55.19
2023-05-07T14:27:05.490Z,55.63
2023-05-07T14:32:07.195Z,56.46
2023-05-07T14:37:08.969Z,55.89
2023-05-07T14:42:10.800Z,54.07
2023-05-07T14:47:12.492Z,54.84
2023-05-07T14:52:16.243Z,54.90
2023-05-07T14:57:19.408Z,54.55
2023-05-07T15:02:21.649Z,55.59
2023-05-07T15:07:23.373Z,54.41
2023-05-07T15:12:25.112Z,55.53
2023-05-07T15:17:26.888Z,55.65
2023-05-07T15:22:28.650Z,55.51
2023-05-07T15:27:30.486Z,55.63
2023-05-07T15:32:33.157Z,55.29
2023-05-07T15:37:35.631Z,56.41
2023-05-07T15:42:37.380Z,56.28
2023-05-07T15:47:39.166Z,56.54
2023-05-07T15:52:41.768Z,56.10
2023-05-07T15:57:44.100Z,56.74
2023-05-07T16:02:45.940Z,56.79
2023-05-07T16:07:47.677Z,57.25
2023-05-07T16:12:49.432Z,57.50
2023-05-07T16:17:51.791Z,58.48
2023-05-07T16:22:53.621Z,58.35
2023-05-07T16:27:55.604Z,58.74
2023-05-07T16:32:57.439Z,58.67
2023-05-07T16:37:59.218Z,59.36
2023-05-07T16:43:01.275Z,58.90
2023-05-07T16:48:04.255Z,60.22
2023-05-07T16:53:07.206Z,60.38
2023-05-07T16:58:10.981Z,60.89
2023-05-07T17:03:13.040Z,60.38
2023-05-07T17:08:15.098Z,59.86
2023-05-07T17:13:16.904Z,59.91
2023-05-07T17:18:18.803Z,60.20
2023-05-07T17:23:20.566Z,60.55
2023-05-07T17:28:22.319Z,60.37
2023-05-07T17:33:23.995Z,60.63
2023-05-07T17:38:25.782Z,61.00
2023-05-07T17:43:27.846Z,60.88
2023-05-07T17:48:29.682Z,60.64
2023-05-07T17:53:31.451Z,60.22
2023-05-07T17:58:36.570Z,60.38
2023-05-07T18:03:44.319Z,60.72
2023-05-07T18:08:46.216Z,61.02
2023-05-07T18:13:48.090Z,61.00
2023-05-07T18:18:50.126Z,61.00
2023-05-07T18:23:51.977Z,61.41
2023-05-07T18:28:53.904Z,61.81
2023-05-07T18:33:56.041Z,61.88
2023-05-07T18:38:58.130Z,62.10
2023-05-07T18:44:00.214Z,62.24
2023-05-07T18:49:01.935Z,61.92
2023-05-07T18:54:03.815Z,62.37
2023-05-07T18:59:06.143Z,62.87
2023-05-07T19:04:07.969Z,62.91
2023-05-07T19:09:09.856Z,63.25
2023-05-07T19:14:12.069Z,63.79
2023-05-07T19:19:13.768Z,63.89
2023-05-07T19:24:16.510Z,64.15
2023-05-07T19:29:18.738Z,64.30
2023-05-07T19:34:20.673Z,64.79
2023-05-07T19:39:22.381Z,64.74
2023-05-07T19:44:24.910Z,65.47
2023-05-07T19:49:26.710Z,65.56
2023-05-07T19:54:28.550Z,65.63
2023-05-07T19:59:30.543Z,65.88
2023-05-07T20:04:37.215Z,65.80
2023-05-07T20:09:39.238Z,66.09
2023-05-07T20:14:41.289Z,66.35
2023-05-07T20:19:43.308Z,66.50
2023-05-07T20:24:44.967Z,66.64
2023-05-07T20:29:46.716Z,66.47
2023-05-07T20:34:48.475Z,66.77
2023-05-07T20:39:50.836Z,66.78
2023-05-07T20:44:52.510Z,66.81
2023-05-07T20:49:54.824Z,66.94
2023-05-07T20:54:56.500Z,66.66
2023-05-07T20:59:59.271Z,66.97
2023-05-07T21:05:01.889Z,67.08
2023-05-07T21:10:03.926Z,67.35
2023-05-07T21:15:06.211Z,67.61
2023-05-07T21:20:08.978Z,67.85
2023-05-07T21:25:13.180Z,67.85
2023-05-07T21:30:15.563Z,67.83
2023-05-07T21:35:17.392Z,68.06
2023-05-07T21:40:19.106Z,68.04
2023-05-07T21:45:20.996Z,68.53
2023-05-07T21:50:23.357Z,68.71
2023-05-07T21:55:25.031Z,68.89
2023-05-07T22:00:26.859Z,69.13
2023-05-07T22:05:28.817Z,69.62
2023-05-07T22:10:30.823Z,69.97
2023-05-07T22:15:35.463Z,70.31
2023-05-07T22:20:39.188Z,70.38
2023-05-07T22:25:41.189Z,70.51
2023-05-07T22:30:42.991Z,70.61
2023-05-07T22:35:45.112Z,70.85
2023-05-07T22:40:46.751Z,71.02
2023-05-07T22:45:48.439Z,71.18
2023-05-07T22:50:50.611Z,71.07
2023-05-07T22:55:52.507Z,70.98
2023-05-07T23:00:54.290Z,71.05
2023-05-07T23:05:55.984Z,71.17
2023-05-07T23:10:57.736Z,71.51
2023-05-07T23:15:59.599Z,72.12
2023-05-07T23:21:01.924Z,72.11
2023-05-07T23:26:03.748Z,72.27
2023-05-07T23:31:09.834Z,72.54
2023-05-07T23:36:11.995Z,72.92
2023-05-07T23:41:13.920Z,73.06
2023-05-07T23:46:15.733Z,73.38
2023-05-07T23:51:17.379Z,73.76
2023-05-07T23:56:19.117Z,73.97
